This is the latest recevied weather packets stored in our database for station/object YO4TNV-15. If no packets are shown the sender has not sent any weather packets the latest 1 day(s).
| Time | Temp. | Humidity | Pressure | Rain* | Wind** | Luminosity | Snow |
|---|---|---|---|---|---|---|---|
| 1778049442 | 21.67° C | 33% | 1000.6 hPa | - | - | - | - |
| 1778049431 | 21.67° C | 33% | 1000.6 hPa | - | - | - | - |
| 1778048542 | 21.11° C | 33% | 1000.5 hPa | - | - | - | - |
| 1778048531 | 21.11° C | 33% | 1000.5 hPa | - | - | - | - |
| 1778047631 | 19.44° C | 34% | 1000.6 hPa | - | - | - | - |
| 1778046742 | 18.89° C | 35% | 1000.6 hPa | - | - | - | - |
| 1778045842 | 21.67° C | 32% | 1000.6 hPa | - | - | - | - |
| 1778044929 | 22.22° C | 32% | 1000.6 hPa | - | - | - | - |
| 1778044058 | 21.11° C | 33% | 1000.4 hPa | - | - | - | - |
| 1778044049 | 21.11° C | 33% | 1000.4 hPa | - | - | - | - |
| 1778043162 | 18.33° C | 38% | 1000.5 hPa | - | - | - | - |
| 1778043149 | 18.33° C | 38% | 1000.5 hPa | - | - | - | - |
| 1778039548 | 15.56° C | 43% | 1000.4 hPa | - | - | - | - |
| 1778038658 | 14.44° C | 46% | 1000.3 hPa | - | - | - | - |
| 1778038648 | 14.44° C | 46% | 1000.3 hPa | - | - | - | - |
| 1778037758 | 12.78° C | 51% | 1000.2 hPa | - | - | - | - |
| 1778037748 | 12.78° C | 51% | 1000.2 hPa | - | - | - | - |
| 1778036857 | 12.78° C | 51% | 1000 hPa | - | - | - | - |
| 1778036847 | 12.78° C | 51% | 1000 hPa | - | - | - | - |
| 1778035947 | 12.78° C | 50% | 1000 hPa | - | - | - | - |
| 1778035057 | 13.33° C | 50% | 999.8 hPa | - | - | - | - |
| 1778035047 | 13.33° C | 50% | 999.8 hPa | - | - | - | - |
| 1778034158 | 13.33° C | 50% | 999.8 hPa | - | - | - | - |
| 1778034146 | 13.33° C | 50% | 999.8 hPa | - | - | - | - |
| 1778033257 | 12.78° C | 51% | 999.7 hPa | - | - | - | - |
* Rain since midnight (hover to see other rain measurements)
** Current wind speed in m/s (hover to see current wind gust speed)